Time;durP1;ratioP1;P1;durP2;ratioP2;P2;SDS_P1;SDS_P2;PMS_P1;PMS_P2;Temp;Humidity;BMP_temperature;BMP_pressure;BME280_temperature;BME280_humidity;BME280_pressure;Samples;Min_cycle;Max_cycle;Signal;HPM_P1;HPM_P2
2022/11/25 00:01:19;;;;;;;42.53;22.08;;;;;;;9.71;61.70;101240.00;4954219;28;97545;-72
2022/11/25 00:03:47;;;;;;;45.35;21.83;;;;;;;9.59;62.34;101246.41;4946372;28;99083;-71
2022/11/25 00:06:15;;;;;;;40.83;21.70;;;;;;;9.78;61.97;101229.25;4954756;28;99305;-70
2022/11/25 00:08:43;;;;;;;42.38;21.33;;;;;;;9.78;61.35;101237.16;4954961;28;96906;-69
2022/11/25 00:11:10;;;;;;;40.60;21.55;;;;;;;9.97;60.87;101230.53;4946576;28;96956;-70
2022/11/25 00:13:38;;;;;;;38.67;20.63;;;;;;;9.95;61.23;101232.34;4947325;28;99178;-70
2022/11/25 00:16:07;;;;;;;40.40;20.70;;;;;;;10.12;60.81;101225.75;4949055;28;98946;-69
2022/11/25 00:18:35;;;;;;;37.67;19.73;;;;;;;10.23;60.08;101227.25;4947442;28;96989;-71
2022/11/25 00:21:07;;;;;;;40.78;20.25;;;;;;;9.82;61.68;101230.91;4948492;28;96825;-70
2022/11/25 00:23:33;;;;;;;34.80;19.60;;;;;;;10.09;61.22;101226.72;4947073;28;98978;-70
2022/11/25 00:26:06;;;;;;;35.00;19.17;;;;;;;10.13;60.87;101223.06;4948610;28;99139;-70
2022/11/25 00:28:32;;;;;;;36.78;19.05;;;;;;;9.81;62.22;101233.59;4945538;28;96797;-70
2022/11/25 00:31:04;;;;;;;34.15;18.17;;;;;;;9.90;61.47;101234.25;4953065;28;96881;-71
2022/11/25 00:33:31;;;;;;;34.25;19.45;;;;;;;9.91;61.60;101235.94;4950428;28;98047;-70
2022/11/25 00:36:02;;;;;;;32.47;18.13;;;;;;;9.93;61.43;101226.22;4959389;28;99024;-70
2022/11/25 00:38:29;;;;;;;34.05;19.17;;;;;;;10.02;61.27;101234.81;4950696;28;96859;-69
2022/11/25 00:44:34;;;;;;;40.17;20.60;;;;;;;9.88;61.40;101237.81;4950741;28;98789;-69
2022/11/25 00:46:27;;;;;;;39.60;21.40;;;;;;;9.97;61.46;101242.88;4946410;28;97168;-70
2022/11/25 00:48:53;;;;;;;44.20;22.20;;;;;;;10.06;60.87;101247.03;4950256;28;98528;-70
2022/11/25 00:51:21;;;;;;;38.50;21.10;;;;;;;9.65;61.87;101246.28;4951546;28;97187;-70
2022/11/25 00:53:47;;;;;;;36.47;20.85;;;;;;;9.88;61.85;101251.88;4959924;28;99174;-69
2022/11/25 00:56:14;;;;;;;40.80;20.83;;;;;;;9.70;61.92;101249.69;4954662;28;99158;-69
2022/11/25 00:58:41;;;;;;;46.97;22.10;;;;;;;10.08;60.98;101247.88;4947342;28;96837;-70
2022/11/25 01:01:07;;;;;;;46.70;23.10;;;;;;;10.11;61.05;101239.88;4946798;28;99075;-69
2022/11/25 01:03:35;;;;;;;43.75;22.75;;;;;;;10.23;60.26;101239.59;4946798;28;99036;-69
2022/11/25 01:06:02;;;;;;;42.45;23.70;;;;;;;9.92;61.36;101244.72;4951564;28;99672;-69
2022/11/25 01:08:31;;;;;;;39.60;22.00;;;;;;;10.09;60.67;101239.91;4955359;28;98828;-70
2022/11/25 01:10:58;;;;;;;43.92;21.77;;;;;;;9.86;61.05;101239.59;4949554;28;97035;-70
2022/11/25 01:13:25;;;;;;;47.03;23.48;;;;;;;9.50;62.25;101246.66;4948934;28;98226;-69
2022/11/25 01:15:51;;;;;;;47.42;23.77;;;;;;;9.68;61.75;101246.22;4944539;28;98938;-70
2022/11/25 01:18:18;;;;;;;50.03;25.65;;;;;;;9.70;61.96;101241.78;4954672;28;97658;-69
2022/11/25 01:20:44;;;;;;;45.50;24.42;;;;;;;9.85;61.39;101245.78;4948694;28;97662;-70
2022/11/25 01:23:10;;;;;;;46.78;24.48;;;;;;;9.83;61.12;101237.94;4950847;28;100367;-70
2022/11/25 01:25:39;;;;;;;49.45;23.80;;;;;;;9.79;61.05;101238.91;4948669;28;98931;-69
2022/11/25 01:28:05;;;;;;;49.38;25.30;;;;;;;9.96;61.04;101241.13;4944624;28;98580;-70
2022/11/25 01:30:32;;;;;;;46.70;24.38;;;;;;;9.93;60.97;101242.06;4948900;28;96780;-69
2022/11/25 01:32:59;;;;;;;50.92;25.65;;;;;;;9.80;61.40;101235.34;4954119;28;98924;-70
2022/11/25 01:35:25;;;;;;;55.08;26.38;;;;;;;9.45;61.97;101243.25;4954637;28;99662;-70
2022/11/25 01:37:51;;;;;;;53.70;26.02;;;;;;;9.76;61.26;101230.19;4954915;28;96888;-70
2022/11/25 01:40:18;;;;;;;53.53;25.38;;;;;;;9.94;61.25;101232.38;4954780;28;96818;-70
2022/11/25 01:42:47;;;;;;;50.25;24.90;;;;;;;10.03;60.74;101229.50;4953215;28;98858;-70
2022/11/25 01:45:43;;;;;;;50.85;27.52;;;;;;;10.03;60.54;101226.88;4948690;28;100809;-69
2022/11/25 01:48:16;;;;;;;57.87;27.40;;;;;;;10.04;60.90;101225.09;4875053;28;96897;-69
2022/11/25 01:50:43;;;;;;;53.85;26.63;;;;;;;9.86;60.85;101229.06;4937179;28;97029;-69
2022/11/25 01:53:12;;;;;;;55.90;25.65;;;;;;;9.88;60.91;101233.41;4956833;28;100198;-70
2022/11/25 01:55:43;;;;;;;57.03;26.20;;;;;;;10.16;60.34;101217.72;4960788;28;98935;-69
2022/11/25 01:58:14;;;;;;;57.03;25.48;;;;;;;10.00;60.63;101216.38;4950499;28;96980;-70
2022/11/25 02:00:40;;;;;;;60.92;26.75;;;;;;;10.00;60.89;101214.59;4961941;28;96827;-69
2022/11/25 02:03:08;;;;;;;54.28;25.08;;;;;;;9.84;61.14;101221.19;4951609;28;99026;-69
2022/11/25 02:05:39;;;;;;;61.10;27.83;;;;;;;9.82;61.04;101207.16;4953380;28;100019;-70
2022/11/25 02:08:07;;;;;;;53.88;26.63;;;;;;;9.95;60.93;101203.31;4951994;28;98840;-69
2022/11/25 02:10:35;;;;;;;55.60;25.50;;;;;;;10.13;60.66;101204.59;4958956;28;96862;-70
2022/11/25 02:13:02;;;;;;;57.67;25.48;;;;;;;9.95;60.67;101200.66;4953515;28;100538;-70
2022/11/25 02:15:33;;;;;;;55.47;26.27;;;;;;;10.02;60.59;101193.44;4951427;28;99118;-70
2022/11/25 02:17:59;;;;;;;56.92;25.63;;;;;;;9.95;60.27;101190.09;4956575;28;98002;-70
2022/11/25 02:20:26;;;;;;;61.22;26.35;;;;;;;10.03;60.56;101199.59;4954032;28;99019;-70
2022/11/25 02:22:58;;;;;;;53.60;25.50;;;;;;;9.71;61.56;101192.50;4948488;28;98966;-70
2022/11/25 02:25:28;;;;;;;64.32;26.92;;;;;;;9.89;60.84;101200.81;4955111;28;97770;-70
2022/11/25 02:27:58;;;;;;;55.63;24.98;;;;;;;9.82;61.33;101207.16;4954281;28;97230;-69
2022/11/25 02:30:24;;;;;;;57.28;25.45;;;;;;;9.79;60.81;101203.72;4957214;28;97032;-68
2022/11/25 02:32:51;;;;;;;55.33;24.83;;;;;;;9.85;61.05;101201.78;4954108;28;99395;-69
2022/11/25 02:35:24;;;;;;;52.03;24.83;;;;;;;9.89;61.14;101198.19;4950597;28;99020;-69
2022/11/25 02:37:52;;;;;;;58.83;26.00;;;;;;;9.50;61.80;101205.31;4954581;28;96943;-68
2022/11/25 02:40:18;;;;;;;54.72;24.65;;;;;;;9.63;62.06;101202.38;4950181;28;96788;-69
2022/11/25 02:42:50;;;;;;;52.78;25.23;;;;;;;9.82;61.62;101201.88;4946649;28;100558;-69
2022/11/25 02:45:21;;;;;;;52.75;25.40;;;;;;;9.55;61.96;101208.69;4947839;28;99012;-69
2022/11/25 02:47:47;;;;;;;48.50;23.88;;;;;;;9.58;62.12;101210.41;4947753;28;98817;-69
2022/11/25 02:50:15;;;;;;;54.97;24.63;;;;;;;9.37;62.60;101206.50;4950685;28;96802;-69
2022/11/25 02:52:41;;;;;;;57.63;25.35;;;;;;;9.40;63.17;101211.69;4958160;28;98390;-69
2022/11/25 02:55:08;;;;;;;48.92;24.73;;;;;;;9.54;62.42;101217.50;4953048;28;98981;-69
2022/11/25 02:57:35;;;;;;;48.95;22.98;;;;;;;9.42;62.85;101223.09;4952434;28;96823;-70
2022/11/25 03:00:04;;;;;;;52.22;24.33;;;;;;;9.32;63.62;101232.09;4953261;28;97294;-69
2022/11/25 03:02:30;;;;;;;52.78;23.13;;;;;;;9.78;62.04;101231.03;4953932;28;98760;-70
2022/11/25 03:04:57;;;;;;;49.40;22.52;;;;;;;9.65;62.14;101219.88;4948999;28;98889;-69
2022/11/25 03:07:23;;;;;;;48.92;23.98;;;;;;;9.85;61.48;101219.41;4953630;28;97083;-69
2022/11/25 03:09:50;;;;;;;49.58;24.00;;;;;;;9.77;61.96;101219.63;4948591;28;96793;-69
2022/11/25 03:12:19;;;;;;;48.30;23.92;;;;;;;9.77;62.20;101224.88;4952362;28;99299;-69
2022/11/25 03:14:46;;;;;;;48.25;22.45;;;;;;;9.64;62.02;101241.94;4950038;28;98832;-69
2022/11/25 03:17:14;;;;;;;45.35;22.42;;;;;;;9.79;61.85;101246.81;4957914;28;96778;-68
2022/11/25 03:19:40;;;;;;;45.97;22.30;;;;;;;9.71;62.57;101235.59;4952056;28;97014;-69
2022/11/25 03:22:07;;;;;;;45.75;21.35;;;;;;;10.03;61.42;101236.56;4959236;28;99680;-69
2022/11/25 03:24:33;;;;;;;41.33;20.65;;;;;;;9.94;61.74;101241.16;4949269;28;98924;-70
2022/11/25 03:27:00;;;;;;;43.58;21.80;;;;;;;9.75;62.34;101239.00;4954361;28;98154;-70
2022/11/25 03:29:26;;;;;;;45.60;22.55;;;;;;;9.92;62.01;101239.47;4949499;28;97003;-70
2022/11/25 03:31:52;;;;;;;47.58;21.88;;;;;;;9.97;61.74;101233.19;4947268;28;99221;-69
2022/11/25 03:34:20;;;;;;;48.63;21.88;;;;;;;9.98;61.53;101234.88;4947400;28;97747;-70
2022/11/25 03:36:46;;;;;;;45.92;23.45;;;;;;;10.12;60.93;101229.25;4951997;28;96979;-70
2022/11/25 03:39:13;;;;;;;46.25;22.38;;;;;;;10.36;60.73;101227.81;4948148;28;97100;-69
2022/11/25 03:41:39;;;;;;;43.40;21.50;;;;;;;10.22;60.64;101225.53;4952540;28;100062;-69
2022/11/25 03:44:06;;;;;;;47.67;22.13;;;;;;;10.15;61.06;101237.13;4946494;28;97581;-69
2022/11/25 03:46:34;;;;;;;43.78;21.98;;;;;;;10.26;60.66;101234.22;4945772;28;96927;-69
2022/11/25 03:49:00;;;;;;;42.97;20.95;;;;;;;9.73;62.25;101227.63;4950990;28;97147;-69
2022/11/25 03:51:28;;;;;;;46.65;22.10;;;;;;;10.00;61.75;101232.22;4950352;28;99127;-69
2022/11/25 03:53:55;;;;;;;46.92;22.42;;;;;;;10.11;61.17;101231.97;4947969;28;99313;-68
2022/11/25 03:56:24;;;;;;;44.75;21.17;;;;;;;9.86;61.66;101232.56;4949350;28;96874;-69
2022/11/25 03:58:50;;;;;;;43.72;22.20;;;;;;;10.20;61.14;101229.09;4947272;28;98660;-69
2022/11/25 04:01:17;;;;;;;44.25;21.63;;;;;;;10.00;61.43;101232.22;4956882;28;99252;-69
2022/11/25 04:03:43;;;;;;;50.42;21.60;;;;;;;10.07;61.17;101225.00;4949628;28;99788;-69
2022/11/25 04:06:10;;;;;;;51.78;22.58;;;;;;;9.95;61.79;101224.44;4951702;28;96709;-69
2022/11/25 04:08:37;;;;;;;46.28;22.40;;;;;;;10.03;61.69;101226.00;4952045;28;96855;-69
2022/11/25 04:11:04;;;;;;;43.70;20.98;;;;;;;10.19;61.20;101232.63;4946656;28;99049;-70
2022/11/25 04:13:29;;;;;;;47.08;21.75;;;;;;;9.90;61.81;101239.53;4947966;28;99475;-70
2022/11/25 04:15:55;;;;;;;;;;;;;;;9.97;61.66;101246.38;4943068;28;96817;-70
2022/11/25 04:18:22;;;;;;;44.33;20.85;;;;;;;10.02;61.35;101251.53;4947500;28;97256;-70
2022/11/25 04:20:48;;;;;;;48.95;21.58;;;;;;;10.11;61.63;101239.88;4949341;28;100008;-69
2022/11/25 04:23:15;;;;;;;47.80;21.92;;;;;;;9.98;61.47;101248.09;4946868;28;98807;-69
2022/11/25 04:25:42;;;;;;;42.95;21.65;;;;;;;10.00;61.62;101238.38;4949647;28;96914;-70
2022/11/25 04:28:09;;;;;;;43.30;21.88;;;;;;;9.98;61.63;101245.44;4945326;28;96939;-69
2022/11/25 04:30:36;;;;;;;48.75;23.20;;;;;;;9.96;62.12;101252.56;4947493;28;99006;-69
2022/11/25 04:33:03;;;;;;;40.00;20.80;;;;;;;9.91;62.07;101248.31;4945511;28;98966;-70
2022/11/25 04:35:29;;;;;;;44.75;21.45;;;;;;;9.87;62.11;101254.53;4950299;28;99238;-70
2022/11/25 04:37:55;;;;;;;42.83;20.42;;;;;;;10.15;60.93;101244.16;4947690;28;98184;-69
2022/11/25 04:40:22;;;;;;;42.70;20.98;;;;;;;10.20;60.98;101242.31;4950830;28;99500;-69
2022/11/25 04:42:50;;;;;;;48.15;23.02;;;;;;;10.35;60.25;101239.28;4949150;28;99104;-69
2022/11/25 04:45:17;;;;;;;48.13;22.17;;;;;;;10.31;60.78;101245.50;4949676;28;97790;-69
2022/11/25 04:47:45;;;;;;;53.75;23.17;;;;;;;10.48;59.98;101245.09;4949739;28;96829;-70
2022/11/25 04:50:15;;;;;;;47.38;23.23;;;;;;;10.29;60.52;101244.72;4951949;28;99275;-69
2022/11/25 04:52:41;;;;;;;43.92;22.27;;;;;;;10.39;60.08;101246.19;4944804;28;98833;-69
2022/11/25 04:55:09;;;;;;;47.92;21.83;;;;;;;10.50;59.97;101244.13;4947856;28;98252;-69
2022/11/25 04:57:35;;;;;;;48.92;22.60;;;;;;;10.08;61.12;101255.78;4946674;28;96974;-69
2022/11/25 05:00:04;;;;;;;47.05;20.67;;;;;;;10.42;60.25;101251.41;4950692;28;99042;-69
2022/11/25 05:02:31;;;;;;;47.00;21.13;;;;;;;10.29;60.44;101253.50;4941362;28;99667;-69
2022/11/25 05:04:58;;;;;;;43.35;21.33;;;;;;;10.27;60.35;101246.53;4946495;28;96881;-70
2022/11/25 05:07:26;;;;;;;46.83;21.67;;;;;;;9.92;61.72;101256.16;4949419;28;97191;-69
2022/11/25 05:09:52;;;;;;;49.00;22.25;;;;;;;10.17;61.34;101253.84;4947271;28;98913;-69
2022/11/25 05:12:21;;;;;;;41.45;21.55;;;;;;;10.11;61.53;101253.94;4953153;28;101002;-71
2022/11/25 05:14:48;;;;;;;48.10;21.40;;;;;;;10.03;61.54;101253.28;4950688;28;97002;-68
2022/11/25 05:17:18;;;;;;;44.58;21.67;;;;;;;10.29;61.20;101252.63;4947960;28;96901;-69
2022/11/25 05:19:45;;;;;;;39.80;20.00;;;;;;;10.11;61.55;101261.84;4946586;28;98882;-69
2022/11/25 05:22:12;;;;;;;38.25;19.42;;;;;;;10.43;60.41;101263.72;4950388;28;98914;-69
2022/11/25 05:24:38;;;;;;;37.80;20.33;;;;;;;9.98;61.89;101265.69;4953081;28;98895;-70
2022/11/25 05:27:05;;;;;;;40.65;18.98;;;;;;;10.13;61.20;101259.19;4947587;28;97257;-70
2022/11/25 05:29:31;;;;;;;39.28;19.63;;;;;;;10.13;61.47;101265.31;4950515;28;99119;-70
2022/11/25 05:31:58;;;;;;;37.15;19.55;;;;;;;10.29;61.24;101265.84;4948856;28;99200;-68
2022/11/25 05:34:26;;;;;;;45.20;20.65;;;;;;;10.26;61.41;101268.56;4949494;28;96825;-68
2022/11/25 05:36:52;;;;;;;44.00;20.25;;;;;;;10.33;60.94;101268.34;4948290;28;96802;-69
2022/11/25 05:39:19;;;;;;;42.85;20.90;;;;;;;10.45;60.98;101267.16;4950981;28;99533;-69
2022/11/25 05:41:45;;;;;;;43.40;20.27;;;;;;;10.36;61.05;101268.28;4951195;28;98935;-70
2022/11/25 05:44:12;;;;;;;45.78;21.10;;;;;;;10.35;60.83;101270.97;4945380;28;98083;-69
2022/11/25 05:46:38;;;;;;;43.88;22.20;;;;;;;10.46;60.47;101268.91;4942054;28;97342;-70
2022/11/25 05:49:05;;;;;;;40.85;20.67;;;;;;;10.57;60.48;101274.75;4942913;28;99343;-70
2022/11/25 05:51:32;;;;;;;49.97;21.77;;;;;;;10.42;60.94;101272.53;4941323;28;99753;-70
2022/11/25 05:53:59;;;;;;;41.80;19.80;;;;;;;10.37;60.65;101274.44;4953168;28;96852;-69
2022/11/25 05:56:25;;;;;;;44.90;21.33;;;;;;;10.24;61.30;101276.50;4950152;28;96902;-70
2022/11/25 05:58:53;;;;;;;47.08;20.63;;;;;;;10.51;60.70;101277.56;4947286;28;98901;-70
2022/11/25 06:01:21;;;;;;;41.38;20.20;;;;;;;10.52;60.32;101275.78;4942698;28;98948;-69
2022/11/25 06:03:47;;;;;;;43.40;21.35;;;;;;;10.21;61.52;101273.97;4949207;28;96770;-70
2022/11/25 06:06:14;;;;;;;47.15;21.45;;;;;;;10.14;61.13;101271.47;4950548;28;97266;-70
2022/11/25 06:08:42;;;;;;;47.08;20.80;;;;;;;10.33;61.38;101267.50;4947369;28;99565;-70
2022/11/25 06:11:12;;;;;;;39.58;20.35;;;;;;;10.20;61.29;101274.00;4945600;28;99207;-69
2022/11/25 06:13:39;;;;;;;44.53;21.10;;;;;;;10.44;60.47;101265.41;4947857;28;96978;-70
2022/11/25 06:16:08;;;;;;;47.05;21.27;;;;;;;10.09;61.24;101265.44;4951995;28;96821;-69
2022/11/25 06:18:35;;;;;;;39.17;19.73;;;;;;;10.21;61.07;101263.41;4950379;28;98959;-69
2022/11/25 06:21:02;;;;;;;45.15;20.80;;;;;;;10.22;61.08;101264.28;4949943;28;99054;-70
2022/11/25 06:23:35;;;;;;;48.67;22.73;;;;;;;9.79;62.07;101267.06;4951073;28;96869;-70
2022/11/25 06:26:08;;;;;;;44.42;21.02;;;;;;;10.09;61.33;101258.41;4949349;28;97410;-69
2022/11/25 06:28:36;;;;;;;45.55;20.98;;;;;;;9.94;61.71;101257.00;4949635;28;99122;-71
2022/11/25 06:31:07;;;;;;;53.38;22.02;;;;;;;10.13;60.94;101264.47;4945317;28;99731;-69
2022/11/25 06:33:34;;;;;;;43.47;21.83;;;;;;;9.84;61.98;101262.56;4943670;28;97376;-70
2022/11/25 06:36:03;;;;;;;60.00;23.50;;;;;;;9.78;62.11;101268.81;4946050;28;97775;-71
2022/11/25 06:38:29;;;;;;;50.95;22.23;;;;;;;9.38;62.88;101268.03;4945369;28;99305;-70
2022/11/25 06:40:59;;;;;;;55.28;23.67;;;;;;;9.48;62.65;101269.56;4943840;28;99184;-70
2022/11/25 06:43:27;;;;;;;49.63;22.55;;;;;;;9.22;63.30;101275.41;4949888;28;96760;-69
2022/11/25 06:45:53;;;;;;;57.45;23.20;;;;;;;9.67;62.11;101276.13;4947973;28;96878;-69
2022/11/25 06:48:20;;;;;;;53.10;23.77;;;;;;;9.37;62.91;101280.34;4946698;28;99713;-70
2022/11/25 06:50:55;;;;;;;49.35;23.00;;;;;;;9.51;63.01;101280.06;4944242;28;98757;-69
2022/11/25 06:53:21;;;;;;;56.10;24.17;;;;;;;9.32;63.26;101294.53;4942967;28;97641;-69
2022/11/25 06:55:48;;;;;;;53.30;23.17;;;;;;;9.74;62.31;101297.97;4952897;28;97044;-71
2022/11/25 06:58:14;;;;;;;53.20;23.70;;;;;;;9.72;61.75;101291.84;4950470;28;98272;-69
2022/11/25 07:00:42;;;;;;;56.95;22.55;;;;;;;9.31;62.39;101298.94;4952641;28;98775;-70
2022/11/25 07:03:09;;;;;;;56.17;23.83;;;;;;;9.40;62.51;101300.50;4950624;28;97413;-68
2022/11/25 07:05:35;;;;;;;58.35;23.55;;;;;;;9.18;63.15;101303.63;4953072;28;97014;-70
2022/11/25 07:08:01;;;;;;;58.00;23.67;;;;;;;9.46;62.58;101305.63;4950809;28;98991;-69
2022/11/25 07:10:28;;;;;;;51.90;23.40;;;;;;;9.29;62.45;101306.03;4943992;28;99136;-68
2022/11/25 07:12:55;;;;;;;50.40;23.08;;;;;;;9.18;62.65;101308.91;4946257;28;97094;-70
2022/11/25 07:15:21;;;;;;;48.17;21.80;;;;;;;9.23;62.75;101310.56;4951160;28;96923;-71
2022/11/25 07:17:49;;;;;;;55.72;24.45;;;;;;;9.05;63.47;101314.44;4946044;28;97956;-70
2022/11/25 07:20:15;;;;;;;50.60;21.90;;;;;;;9.21;63.06;101326.41;4946451;28;99358;-70
2022/11/25 07:22:42;;;;;;;52.90;22.88;;;;;;;9.46;62.04;101330.25;4944649;28;97210;-70
2022/11/25 07:25:09;;;;;;;48.40;23.17;;;;;;;9.31;62.58;101335.88;4948841;28;97209;-69
2022/11/25 07:27:36;;;;;;;49.58;22.70;;;;;;;9.22;62.71;101340.47;4950828;28;99565;-70
2022/11/25 07:30:02;;;;;;;47.53;23.08;;;;;;;9.43;62.47;101334.75;4953119;28;99024;-70
2022/11/25 07:32:32;;;;;;;53.67;22.73;;;;;;;9.45;62.90;101344.34;4956427;28;97635;-70
2022/11/25 07:35:00;;;;;;;55.15;23.02;;;;;;;9.77;61.98;101348.94;4952957;28;96884;-70
2022/11/25 07:37:27;;;;;;;52.65;23.83;;;;;;;9.60;62.26;101345.78;4957122;28;99431;-71
2022/11/25 07:39:53;;;;;;;49.97;21.63;;;;;;;9.85;61.81;101349.59;4960921;28;98712;-70
2022/11/25 07:42:20;;;;;;;49.13;22.75;;;;;;;9.90;62.28;101342.47;4952642;28;96701;-70
2022/11/25 07:44:46;;;;;;;62.42;22.60;;;;;;;9.95;61.61;101343.22;4958436;28;96782;-72
2022/11/25 07:47:13;;;;;;;52.47;22.17;;;;;;;10.13;61.38;101348.97;4952637;28;98905;-69
2022/11/25 07:49:39;;;;;;;49.25;22.35;;;;;;;9.90;61.77;101342.47;4952089;28;98842;-70
2022/11/25 07:52:09;;;;;;;57.67;23.48;;;;;;;10.06;62.10;101342.97;4952569;28;96704;-69
2022/11/25 07:54:36;;;;;;;56.00;22.80;;;;;;;10.00;61.64;101341.34;4957205;28;98390;-71
2022/11/25 07:57:02;;;;;;;50.40;22.25;;;;;;;9.83;62.14;101340.00;4955417;28;101191;-71
2022/11/25 07:59:28;;;;;;;45.25;21.50;;;;;;;10.00;62.17;101335.19;4942157;28;100632;-70
2022/11/25 08:01:55;;;;;;;44.28;21.88;;;;;;;10.09;61.93;101326.19;4953558;28;96869;-71
2022/11/25 08:04:23;;;;;;;45.90;21.75;;;;;;;10.31;61.67;101325.63;4952198;28;97446;-70
2022/11/25 08:06:52;;;;;;;50.47;21.52;;;;;;;10.08;62.32;101329.72;4950481;28;98888;-70
2022/11/25 08:09:23;;;;;;;38.38;19.55;;;;;;;10.35;61.29;101323.81;4954278;28;100481;-67
2022/11/25 08:11:50;;;;;;;48.92;19.77;;;;;;;10.47;61.81;101334.06;4956128;28;96965;-66
2022/11/25 08:14:16;;;;;;;39.90;20.70;;;;;;;10.74;60.96;101333.34;4958215;28;100991;-66
2022/11/25 08:16:46;;;;;;;41.13;20.10;;;;;;;10.62;60.89;101338.06;4952665;28;97909;-64
2022/11/25 08:19:15;;;;;;;39.17;20.48;;;;;;;10.54;61.16;101345.31;4960985;28;98794;-68
2022/11/25 08:21:42;;;;;;;40.72;20.30;;;;;;;10.62;61.22;101348.66;4955126;28;97114;-65
2022/11/25 08:24:12;;;;;;;41.83;21.50;;;;;;;10.68;60.88;101349.34;4957366;28;97164;-66
2022/11/25 08:26:40;;;;;;;45.35;21.38;;;;;;;10.67;60.71;101350.25;4953800;28;99209;-66
2022/11/25 08:29:08;;;;;;;38.15;19.63;;;;;;;10.67;61.16;101355.53;4955204;28;97741;-66
2022/11/25 08:31:37;;;;;;;45.03;20.00;;;;;;;10.58;61.00;101353.13;4950123;28;97083;-65
2022/11/25 08:34:05;;;;;;;41.50;20.67;;;;;;;10.67;60.90;101347.63;4952851;28;96828;-65
2022/11/25 08:36:33;;;;;;;46.38;22.08;;;;;;;10.72;60.86;101348.34;4956073;28;99492;-65
2022/11/25 08:39:03;;;;;;;45.25;21.60;;;;;;;10.65;61.43;101354.72;4952463;28;99222;-65
2022/11/25 08:41:41;;;;;;;44.85;20.27;;;;;;;10.78;60.76;101353.47;4957267;28;96952;-66
2022/11/25 08:44:12;;;;;;;39.83;19.45;;;;;;;10.67;61.21;101363.47;4952615;28;96752;-67
2022/11/25 08:46:38;;;;;;;42.00;19.67;;;;;;;10.81;61.13;101354.31;4947805;28;98893;-65
2022/11/25 08:49:07;;;;;;;41.97;19.25;;;;;;;10.81;60.83;101360.47;4951244;28;98957;-65
2022/11/25 08:51:36;;;;;;;38.75;19.08;;;;;;;10.80;61.18;101350.78;4951436;28;97256;-66
2022/11/25 08:54:09;;;;;;;40.13;19.98;;;;;;;10.82;60.82;101356.06;4950416;28;96841;-65
2022/11/25 08:56:36;;;;;;;40.40;19.30;;;;;;;10.70;61.36;101358.09;4960100;28;98916;-65
2022/11/25 08:59:03;;;;;;;39.35;19.20;;;;;;;11.14;60.36;101350.75;4957442;28;101183;-65
2022/11/25 09:01:33;;;;;;;37.03;18.25;;;;;;;11.19;60.16;101352.34;4961115;28;96696;-65
2022/11/25 09:04:03;;;;;;;38.22;18.33;;;;;;;11.27;59.52;101362.72;4936638;28;99784;-65
2022/11/25 09:06:32;;;;;;;33.35;17.48;;;;;;;11.33;59.38;101359.88;4951574;28;98862;-66
2022/11/25 09:09:00;;;;;;;31.92;17.67;;;;;;;11.36;59.20;101354.50;4955564;28;98194;-66
2022/11/25 09:11:27;;;;;;;44.00;20.00;;;;;;;11.51;58.94;101358.47;4954933;28;97065;-66
2022/11/25 09:14:01;;;;;;;46.88;20.48;;;;;;;11.46;59.18;101361.25;4955573;28;97219;-65
2022/11/25 09:16:28;;;;;;;38.72;19.67;;;;;;;11.48;58.51;101367.38;4950505;28;98189;-66
2022/11/25 09:18:58;;;;;;;41.97;19.58;;;;;;;11.49;58.54;101365.59;4948331;28;100447;-66
2022/11/25 09:21:25;;;;;;;44.10;19.38;;;;;;;11.29;58.87;101374.09;4950826;28;97386;-65
2022/11/25 09:23:53;;;;;;;41.95;18.75;;;;;;;11.30;58.68;101369.69;4956797;28;97447;-67
2022/11/25 09:26:22;;;;;;;38.80;19.08;;;;;;;11.31;58.45;101372.28;4956657;28;100549;-65
2022/11/25 09:28:49;;;;;;;40.30;20.35;;;;;;;10.96;59.43;101375.06;4957504;28;97825;-65
2022/11/25 09:31:17;;;;;;;41.70;19.83;;;;;;;11.17;59.05;101364.75;4957589;28;97647;-67
2022/11/25 09:33:43;;;;;;;38.17;19.55;;;;;;;10.76;59.68;101365.84;4957573;28;96824;-66
2022/11/25 09:36:18;;;;;;;38.75;19.17;;;;;;;10.99;59.38;101369.66;4951908;28;99394;-67
2022/11/25 09:38:47;;;;;;;43.45;20.25;;;;;;;10.58;60.54;101365.47;4955051;28;98865;-67
2022/11/25 09:47:17;;;;;;;40.80;19.42;;;;;;;10.88;60.02;101369.09;4947208;28;97197;-67
2022/11/25 09:50:05;;;;;;;43.65;18.88;;;;;;;10.86;59.90;101360.34;4960254;28;100004;-67
2022/11/25 09:52:44;;;;;;;41.10;19.77;;;;;;;10.84;60.09;101359.50;4948657;28;97307;-67
2022/11/25 09:55:15;;;;;;;40.95;20.15;;;;;;;11.06;59.17;101350.94;4955447;28;97088;-65
2022/11/25 09:57:54;;;;;;;43.15;19.80;;;;;;;11.04;59.43;101346.59;4944155;28;100863;-65
2022/11/25 10:00:22;;;;;;;41.95;21.05;;;;;;;11.10;58.89;101357.88;4950999;28;99681;-67
2022/11/25 10:03:00;;;;;;;42.97;20.63;;;;;;;11.12;59.30;101356.06;4958471;28;96855;-66
2022/11/25 10:05:30;;;;;;;41.45;20.95;;;;;;;11.05;59.48;101346.56;4950688;28;97666;-65
2022/11/25 10:08:03;;;;;;;42.60;21.23;;;;;;;11.16;59.25;101346.25;4954758;28;101149;-65
2022/11/25 10:10:40;;;;;;;44.95;20.65;;;;;;;11.21;59.07;101346.16;4949894;28;99104;-66
2022/11/25 10:13:22;;;;;;;44.78;20.77;;;;;;;11.30;59.04;101344.09;4956080;28;97276;-66
2022/11/25 10:15:50;;;;;;;37.63;19.55;;;;;;;11.57;58.35;101343.28;4953123;28;97384;-68
2022/11/25 10:18:28;;;;;;;39.05;19.67;;;;;;;11.80;57.67;101345.28;4956182;28;99055;-67
2022/11/25 10:20:55;;;;;;;41.90;21.13;;;;;;;11.53;58.25;101346.94;4954215;28;97247;-65
2022/11/25 10:23:30;;;;;;;37.45;20.30;;;;;;;11.73;57.90;101348.13;4958285;28;96937;-66
2022/11/25 10:26:01;;;;;;;40.92;20.25;;;;;;;11.28;58.81;101345.94;4957288;28;97953;-65
2022/11/25 10:28:30;;;;;;;37.08;20.10;;;;;;;11.73;58.18;101350.75;4954903;28;99381;-66
2022/11/25 10:31:04;;;;;;;41.58;21.05;;;;;;;11.82;58.01;101350.50;4960472;28;97838;-66
2022/11/25 10:33:48;;;;;;;42.72;20.17;;;;;;;11.87;57.43;101352.13;4953541;28;98022;-66
2022/11/25 10:39:40;;;;;;;41.28;20.60;;;;;;;11.81;57.70;101352.31;4918196;26;97230;-70
2022/11/25 10:42:16;;;;;;;37.17;20.77;;;;;;;11.97;57.65;101348.25;4916973;28;97862;-70
2022/11/25 10:48:13;;;;;;;36.97;20.80;;;;;;;12.24;56.63;101351.78;4946210;28;97531;-71
2022/11/25 10:50:52;;;;;;;37.47;21.15;;;;;;;12.10;56.55;101356.66;4943114;28;99041;-67
2022/11/25 10:53:24;;;;;;;42.17;21.50;;;;;;;12.06;56.77;101357.69;4938977;28;97969;-71
2022/11/25 10:56:00;;;;;;;41.55;21.63;;;;;;;11.91;56.96;101356.38;4936015;28;97603;-70
2022/11/25 10:58:30;;;;;;;;;;;;;;;11.93;57.16;101361.66;4933760;28;97205;-70
2022/11/25 11:01:13;;;;;;;44.28;22.17;;;;;;;12.23;56.50;101360.66;4932896;28;98152;-70
2022/11/25 11:03:41;;;;;;;45.08;23.33;;;;;;;12.26;56.29;101360.56;4933154;28;99342;-71
2022/11/25 11:06:29;;;;;;;41.67;23.83;;;;;;;12.10;56.59;101359.31;4938244;28;97227;-69
2022/11/25 11:08:56;;;;;;;47.42;23.83;;;;;;;12.24;56.43;101366.81;4938232;28;97477;-70
2022/11/25 11:11:24;;;;;;;50.42;24.85;;;;;;;12.10;56.91;101369.91;4935936;28;99057;-70
2022/11/25 11:13:59;;;;;;;48.60;25.15;;;;;;;12.27;56.48;101359.63;4938229;28;98776;-70
2022/11/25 11:16:29;;;;;;;35.07;18.87;;;;;;;11.97;56.81;101364.13;4936613;28;96830;-70
2022/11/25 11:18:56;;;;;;;46.83;25.83;;;;;;;11.73;57.56;101356.94;4938411;28;97591;-70
2022/11/25 11:21:28;;;;;;;46.85;24.95;;;;;;;11.83;57.48;101352.22;4935382;28;98209;-70
2022/11/25 11:23:58;;;;;;;51.88;25.95;;;;;;;11.84;57.82;101359.25;4939587;28;98854;-69
2022/11/25 11:26:28;;;;;;;51.00;24.73;;;;;;;11.96;57.44;101358.88;4931123;28;96686;-66
2022/11/25 11:29:02;;;;;;;54.20;26.02;;;;;;;12.01;57.30;101356.97;4935386;28;96862;-66
2022/11/25 11:31:34;;;;;;;51.35;25.95;;;;;;;11.96;57.43;101356.22;4937211;28;98531;-66
2022/11/25 11:34:16;;;;;;;49.83;26.40;;;;;;;11.85;57.86;101353.94;4927449;28;99660;-67